Time;durP1;ratioP1;P1;durP2;ratioP2;P2;SDS_P1;SDS_P2;PMS_P1;PMS_P2;Temp;Humidity;BMP_temperature;BMP_pressure;BME280_temperature;BME280_humidity;BME280_pressure;Samples;Min_cycle;Max_cycle;Signal;HPM_P1;HPM_P2
2023/01/19 00:00:14;;;;;;;5.50;4.07;;;2.00;99.90;3.00;95109.00;;;;5065062;28;20422;-63
2023/01/19 00:03:04;;;;;;;4.03;3.60;;;2.00;99.90;3.10;95106.00;;;;5070273;28;20423;-63
2023/01/19 00:05:53;;;;;;;4.00;3.67;;;2.00;99.90;3.10;95107.00;;;;5063743;28;20974;-62
2023/01/19 00:08:44;;;;;;;5.83;4.53;;;2.00;99.90;3.10;95108.00;;;;5060952;28;20430;-63
2023/01/19 00:11:33;;;;;;;5.50;4.10;;;2.00;99.90;3.20;95114.00;;;;5063884;28;20408;-63
2023/01/19 00:14:22;;;;;;;6.00;4.73;;;2.10;99.90;3.30;95119.00;;;;5061946;28;20238;-63
2023/01/19 00:17:11;;;;;;;6.97;3.83;;;2.10;99.90;3.20;95116.00;;;;5071609;28;20434;-63
2023/01/19 00:20:00;;;;;;;4.87;4.07;;;2.10;99.90;3.20;95110.00;;;;5069203;28;20967;-63
2023/01/19 00:22:49;;;;;;;3.73;3.43;;;2.10;99.90;3.30;95123.00;;;;5067868;28;20500;-63
2023/01/19 00:25:41;;;;;;;4.67;3.97;;;2.10;99.90;3.20;95127.00;;;;5058051;28;20866;-63
2023/01/19 00:28:30;;;;;;;6.10;4.30;;;2.10;99.90;3.30;95129.00;;;;5063489;28;20415;-63
2023/01/19 00:31:20;;;;;;;4.40;4.00;;;2.20;99.90;3.40;95137.00;;;;5069807;28;20949;-63
2023/01/19 00:34:09;;;;;;;5.80;3.60;;;2.10;99.90;3.40;95133.00;;;;5062290;28;20984;-63
2023/01/19 00:37:00;;;;;;;7.33;5.50;;;2.10;99.90;3.30;95133.00;;;;5057326;28;21249;-63
2023/01/19 00:39:49;;;;;;;4.43;4.03;;;2.10;99.90;3.10;95140.00;;;;5062865;28;20531;-63
2023/01/19 00:42:44;;;;;;;6.63;4.17;;;2.10;99.90;3.30;95134.00;;;;5068187;28;20973;-62
2023/01/19 00:45:34;;;;;;;4.27;3.83;;;2.10;99.90;3.40;95138.00;;;;5059861;28;20216;-62
2023/01/19 00:48:22;;;;;;;4.33;3.77;;;2.10;99.90;3.30;95142.00;;;;5064922;28;20429;-62
2023/01/19 00:51:11;;;;;;;4.20;3.50;;;2.10;99.90;3.30;95146.00;;;;5068076;28;21010;-63
2023/01/19 00:54:03;;;;;;;4.70;3.80;;;2.10;99.90;3.30;95144.00;;;;5061717;28;20428;-63
2023/01/19 00:56:52;;;;;;;4.67;4.00;;;2.10;99.90;3.40;95138.00;;;;5059441;28;20999;-63
2023/01/19 00:59:42;;;;;;;3.37;2.87;;;2.10;99.90;3.30;95131.00;;;;5056172;28;20429;-62
2023/01/19 01:02:31;;;;;;;3.83;2.73;;;2.20;99.90;3.30;95131.00;;;;5066336;28;20443;-62
2023/01/19 01:05:20;;;;;;;5.40;3.30;;;2.10;99.90;3.30;95131.00;;;;5056992;28;20431;-63
2023/01/19 01:08:09;;;;;;;3.37;3.07;;;2.30;99.90;3.40;95127.00;;;;5055616;28;20424;-63
2023/01/19 01:10:58;;;;;;;3.37;2.97;;;2.10;99.90;3.30;95135.00;;;;5058331;28;20462;-63
2023/01/19 01:13:46;;;;;;;3.13;2.83;;;2.10;99.90;3.30;95142.00;;;;5063195;28;20438;-63
2023/01/19 01:16:36;;;;;;;3.10;2.90;;;2.20;99.90;3.10;95145.00;;;;5063702;28;20467;-63
2023/01/19 01:19:25;;;;;;;3.90;3.43;;;2.10;99.90;3.20;95152.00;;;;5060233;28;20430;-62
2023/01/19 01:22:14;;;;;;;3.60;3.00;;;2.10;99.90;3.30;95159.00;;;;5069285;28;20937;-63
2023/01/19 01:25:02;;;;;;;3.77;3.47;;;2.10;99.90;3.30;95139.00;;;;5061953;28;21022;-63
2023/01/19 01:27:51;;;;;;;4.40;4.00;;;2.20;99.90;3.20;95131.00;;;;5068642;28;20427;-63
2023/01/19 01:30:42;;;;;;;3.50;3.20;;;2.10;99.90;3.00;95122.00;;;;5068698;28;20215;-62
2023/01/19 01:33:32;;;;;;;3.30;3.00;;;2.10;99.90;3.20;95133.00;;;;5069125;28;20970;-63
2023/01/19 01:36:21;;;;;;;3.47;3.17;;;2.10;99.90;3.40;95150.00;;;;5068686;28;20555;-63
2023/01/19 01:39:10;;;;;;;3.07;2.63;;;2.20;99.90;3.50;95152.00;;;;5067521;28;20422;-63
2023/01/19 01:41:59;;;;;;;3.87;2.77;;;2.20;99.90;3.50;95164.00;;;;5068489;28;20427;-63
2023/01/19 01:44:51;;;;;;;2.93;2.60;;;2.20;99.90;3.50;95161.00;;;;5069841;28;20269;-64
2023/01/19 01:47:43;;;;;;;3.37;3.03;;;2.20;99.90;3.30;95153.00;;;;5068698;28;20922;-64
2023/01/19 01:50:38;;;;;;;2.60;2.40;;;2.10;99.90;3.30;95155.00;;;;5069293;28;21042;-64
2023/01/19 01:53:29;;;;;;;2.83;2.60;;;2.20;99.90;3.40;95149.00;;;;5058690;28;20496;-63
2023/01/19 01:56:25;;;;;;;2.93;2.73;;;2.10;99.90;3.50;95137.00;;;;5065684;28;20545;-64
2023/01/19 01:59:24;;;;;;;2.33;2.13;;;2.20;99.90;3.30;95133.00;;;;5060657;28;20938;-64
2023/01/19 02:05:26;;;;;;;3.07;2.77;;;2.20;99.90;3.30;95153.00;;;;5065400;28;20235;-63
2023/01/19 02:14:37;;;;;;;2.67;2.33;;;2.10;99.90;3.30;95153.00;;;;5062073;28;21070;-64
2023/01/19 02:17:26;;;;;;;1.80;1.70;;;2.10;99.90;3.40;95160.00;;;;5062042;28;20559;-64
2023/01/19 02:20:16;;;;;;;1.90;1.73;;;2.10;99.90;3.30;95140.00;;;;5068096;28;20261;-64
2023/01/19 02:23:14;;;;;;;1.80;1.70;;;2.10;99.90;3.30;95141.00;;;;5069615;28;20505;-64
2023/01/19 02:26:06;;;;;;;2.83;2.63;;;2.10;99.90;3.20;95147.00;;;;5067478;28;20595;-64
2023/01/19 02:28:59;;;;;;;2.63;2.43;;;2.10;99.90;3.20;95152.00;;;;5067358;28;20505;-64
2023/01/19 02:31:48;;;;;;;4.07;2.30;;;2.10;99.90;3.20;95141.00;;;;5068860;28;20426;-64
2023/01/19 02:34:37;;;;;;;2.30;2.10;;;2.10;99.90;3.20;95137.00;;;;5064160;28;20525;-64
2023/01/19 02:37:29;;;;;;;1.60;1.50;;;2.00;99.90;2.90;95142.00;;;;5062344;28;21171;-64
2023/01/19 02:40:20;;;;;;;2.37;1.83;;;2.10;99.90;3.20;95136.00;;;;5061200;28;20426;-63
2023/01/19 02:43:10;;;;;;;3.20;2.30;;;2.00;99.90;3.30;95133.00;;;;5065242;28;20419;-64
2023/01/19 02:45:59;;;;;;;2.03;1.83;;;2.00;99.90;3.20;95135.00;;;;5069646;28;20450;-64
2023/01/19 02:48:47;;;;;;;1.73;1.57;;;2.00;99.90;3.10;95136.00;;;;5069670;28;20422;-63
2023/01/19 02:51:36;;;;;;;2.23;1.97;;;2.00;99.90;3.10;95138.00;;;;5071972;28;20418;-64
2023/01/19 02:54:39;;;;;;;1.63;1.53;;;1.90;99.90;2.70;95147.00;;;;5064388;28;20450;-63
2023/01/19 02:57:45;;;;;;;1.80;1.70;;;1.90;99.90;3.20;95156.00;;;;5070623;28;20461;-63
2023/01/19 03:00:46;;;;;;;2.37;2.03;;;1.90;99.90;3.30;95155.00;;;;5072524;28;20971;-63
2023/01/19 03:03:46;;;;;;;1.73;1.63;;;1.90;99.90;3.20;95162.00;;;;5071461;28;20422;-63
2023/01/19 03:06:45;;;;;;;3.67;1.57;;;2.00;99.90;3.00;95152.00;;;;5072601;28;20430;-63
2023/01/19 03:09:42;;;;;;;3.73;1.50;;;1.90;99.90;3.00;95164.00;;;;5070775;28;20564;-63
2023/01/19 03:12:40;;;;;;;1.43;1.27;;;1.90;99.90;2.60;95154.00;;;;5071096;28;20773;-63
2023/01/19 03:15:36;;;;;;;1.50;1.40;;;1.80;99.90;3.00;95158.00;;;;5077302;22;20516;-86
2023/01/19 03:18:29;;;;;;;1.57;1.47;;;1.80;99.90;3.00;95161.00;;;;5063295;28;20470;-87
2023/01/19 03:21:20;;;;;;;1.30;1.20;;;1.80;99.90;3.00;95182.00;;;;5070320;28;20430;-87
2023/01/19 03:24:11;;;;;;;2.03;1.10;;;2.00;99.90;3.00;95181.00;;;;5052747;28;20490;-87
2023/01/19 03:27:05;;;;;;;1.47;1.37;;;2.20;99.90;2.80;95198.00;;;;5039943;28;20440;-87
2023/01/19 03:29:58;;;;;;;1.53;1.30;;;1.80;99.90;2.70;95205.00;;;;5049940;28;20477;-87
2023/01/19 03:32:52;;;;;;;1.60;1.50;;;2.10;99.90;2.70;95210.00;;;;5049876;28;20471;-85
2023/01/19 03:35:45;;;;;;;1.50;1.40;;;1.70;99.90;2.90;95208.00;;;;5053968;28;20435;-85
2023/01/19 03:38:38;;;;;;;1.83;1.67;;;2.00;99.90;3.00;95219.00;;;;5049325;28;20537;-85
2023/01/19 03:41:28;;;;;;;1.50;1.40;;;2.10;99.90;2.70;95206.00;;;;5038405;28;20430;-86
2023/01/19 03:44:17;;;;;;;3.03;1.50;;;1.70;99.90;2.90;95198.00;;;;5050418;28;20574;-85
2023/01/19 03:47:08;;;;;;;4.20;2.03;;;1.70;99.90;2.60;95197.00;;;;5050405;28;21129;-88
2023/01/19 03:50:02;;;;;;;1.77;1.43;;;1.60;99.90;2.90;95203.00;;;;5049280;28;20420;-87
2023/01/19 03:53:02;;;;;;;1.70;1.53;;;1.60;99.90;3.00;95212.00;;;;5051238;28;20458;-87
2023/01/19 03:55:53;;;;;;;2.20;1.90;;;1.70;99.90;2.80;95189.00;;;;5051168;28;20482;-87
2023/01/19 03:58:42;;;;;;;1.73;1.63;;;1.70;99.90;2.90;95197.00;;;;5047671;28;20549;-87
2023/01/19 04:01:31;;;;;;;1.30;1.20;;;1.80;99.90;2.90;95202.00;;;;5048102;28;20442;-87
2023/01/19 04:04:19;;;;;;;0.93;0.93;;;1.80;99.90;2.80;95193.00;;;;5047886;28;20452;-87
2023/01/19 04:07:11;;;;;;;1.23;1.13;;;1.70;99.90;2.90;95195.00;;;;5050179;28;20435;-87
2023/01/19 04:10:00;;;;;;;1.83;1.13;;;1.60;99.90;2.90;95190.00;;;;5049726;28;20424;-87
2023/01/19 04:12:49;;;;;;;1.30;1.20;;;2.50;99.90;2.80;95198.00;;;;5050330;28;20573;-88
2023/01/19 04:15:38;;;;;;;1.80;1.27;;;1.60;99.90;2.80;95204.00;;;;5049532;28;20442;-87
2023/01/19 04:18:26;;;;;;;1.50;1.33;;;1.60;99.90;2.70;95203.00;;;;5048549;28;20486;-88
2023/01/19 04:21:16;;;;;;;1.97;1.77;;;1.70;99.90;2.80;95204.00;;;;5050664;28;20435;-87
2023/01/19 04:24:08;;;;;;;1.20;1.10;;;3.70;99.90;2.70;95206.00;;;;5049338;28;20451;-88
2023/01/19 04:26:57;;;;;;;1.87;1.77;;;1.60;99.90;2.70;95211.00;;;;5042160;28;20420;-87
2023/01/19 04:29:46;;;;;;;1.70;1.60;;;1.60;99.90;2.70;95209.00;;;;5049278;28;20428;-87
2023/01/19 04:32:35;;;;;;;1.40;1.30;;;1.70;99.90;2.70;95218.00;;;;5049515;28;20439;-87
2023/01/19 04:35:23;;;;;;;3.73;1.43;;;2.00;99.90;2.80;95202.00;;;;5048544;28;20438;-87
2023/01/19 04:38:12;;;;;;;3.23;1.40;;;2.10;99.90;2.60;95215.00;;;;5046069;28;20447;-87
2023/01/19 04:41:03;;;;;;;4.80;1.90;;;2.30;99.90;2.60;95221.00;;;;5051174;28;20856;-87
2023/01/19 04:43:51;;;;;;;1.83;1.73;;;1.50;99.90;2.70;95211.00;;;;5049145;28;20958;-86
2023/01/19 04:46:40;;;;;;;3.40;2.03;;;1.90;99.90;2.80;95212.00;;;;5049290;28;20497;-86
2023/01/19 04:49:29;;;;;;;1.93;1.73;;;2.20;99.90;2.60;95196.00;;;;5050080;28;21029;-84
2023/01/19 04:52:18;;;;;;;2.40;1.87;;;1.50;99.90;2.90;95218.00;;;;5051536;28;20451;-85
2023/01/19 04:55:08;;;;;;;1.80;1.67;;;1.70;99.90;3.00;95219.00;;;;5048480;28;20435;-85
2023/01/19 04:57:58;;;;;;;1.70;1.60;;;1.60;99.90;2.90;95214.00;;;;5044697;28;20463;-84
2023/01/19 05:00:47;;;;;;;1.40;1.30;;;1.70;99.90;2.90;95226.00;;;;5050345;28;20420;-84
2023/01/19 05:03:36;;;;;;;1.37;1.27;;;1.70;99.90;2.80;95210.00;;;;5048115;28;20449;-85
2023/01/19 05:06:25;;;;;;;1.73;1.63;;;1.90;99.90;2.90;95217.00;;;;5049602;28;20423;-85
2023/01/19 05:09:14;;;;;;;2.03;1.43;;;1.80;99.90;2.90;95215.00;;;;5049062;28;20485;-85
2023/01/19 05:12:03;;;;;;;2.57;2.33;;;1.60;99.90;2.90;95215.00;;;;5049703;28;20429;-85
2023/01/19 05:14:53;;;;;;;2.37;1.77;;;1.70;99.90;2.70;95218.00;;;;5050350;28;20450;-85
2023/01/19 05:17:42;;;;;;;1.30;1.20;;;1.80;99.90;2.70;95216.00;;;;5048304;28;21135;-85
2023/01/19 05:20:31;;;;;;;1.50;1.40;;;1.60;99.90;2.80;95223.00;;;;5048990;28;20788;-85
2023/01/19 05:23:19;;;;;;;4.10;1.30;;;2.00;99.90;2.80;95227.00;;;;5043243;28;20485;-84
2023/01/19 05:26:08;;;;;;;1.67;1.40;;;1.60;99.90;2.70;95240.00;;;;5045170;28;20432;-84
2023/01/19 05:28:57;;;;;;;4.40;1.70;;;1.60;99.90;2.60;95252.00;;;;5043890;28;20424;-85
2023/01/19 05:31:48;;;;;;;2.00;1.80;;;1.90;99.90;2.60;95249.00;;;;5038611;28;20938;-85
2023/01/19 05:34:37;;;;;;;1.00;0.90;;;1.50;99.90;2.60;95263.00;;;;5054883;28;20431;-84
2023/01/19 05:37:25;;;;;;;1.87;1.77;;;1.40;99.90;2.60;95256.00;;;;5050274;28;20431;-84
2023/01/19 05:40:14;;;;;;;1.60;1.50;;;2.50;99.90;2.70;95257.00;;;;5046094;28;20416;-84
2023/01/19 05:43:03;;;;;;;1.40;1.30;;;1.50;99.90;2.80;95261.00;;;;5037581;28;20463;-85
2023/01/19 05:45:52;;;;;;;0.87;0.87;;;1.50;99.90;2.60;95259.00;;;;5050810;28;20419;-84
2023/01/19 05:48:43;;;;;;;1.50;1.40;;;1.50;99.90;2.70;95249.00;;;;5052542;28;20451;-85
2023/01/19 05:51:36;;;;;;;0.97;0.87;;;1.50;99.90;2.80;95243.00;;;;5049143;28;20520;-85
2023/01/19 05:54:25;;;;;;;1.13;1.07;;;1.50;99.90;2.80;95245.00;;;;5048377;28;20428;-85
2023/01/19 05:57:14;;;;;;;1.17;1.07;;;1.50;99.90;2.60;95237.00;;;;5046984;28;20968;-85
2023/01/19 06:00:03;;;;;;;1.57;1.47;;;1.80;99.90;2.70;95239.00;;;;5045523;28;20921;-85
2023/01/19 06:02:52;;;;;;;1.70;1.60;;;1.50;99.90;2.70;95245.00;;;;5044648;28;20459;-85
2023/01/19 06:05:42;;;;;;;3.10;1.53;;;1.90;99.90;2.60;95242.00;;;;5046601;28;20436;-84
2023/01/19 06:08:31;;;;;;;1.73;1.27;;;2.50;99.90;2.50;95232.00;;;;5043805;28;20458;-85
2023/01/19 06:11:20;;;;;;;1.67;1.57;;;1.70;99.90;2.50;95241.00;;;;5044424;28;20808;-85
2023/01/19 06:14:10;;;;;;;1.67;1.57;;;1.40;99.90;2.50;95242.00;;;;5046196;28;20942;-84
2023/01/19 06:16:58;;;;;;;1.60;1.30;;;1.70;99.90;2.50;95253.00;;;;5035701;28;20443;-84
2023/01/19 06:19:47;;;;;;;1.60;1.50;;;1.40;99.90;2.50;95254.00;;;;5047901;28;20478;-84
2023/01/19 06:22:37;;;;;;;1.77;1.60;;;2.00;99.90;2.70;95257.00;;;;5048858;28;20863;-84
2023/01/19 06:25:26;;;;;;;1.60;1.50;;;1.60;99.90;2.80;95264.00;;;;5041545;28;20431;-85
2023/01/19 06:28:15;;;;;;;1.00;0.90;;;1.60;99.90;2.60;95277.00;;;;5048196;28;20492;-84
2023/01/19 06:31:03;;;;;;;1.53;1.07;;;1.90;99.90;2.70;95283.00;;;;5045414;28;20438;-84
2023/01/19 06:33:52;;;;;;;0.90;0.90;;;1.90;99.90;2.60;95278.00;;;;5044038;28;20467;-84
2023/01/19 06:36:41;;;;;;;1.27;1.17;;;1.90;99.90;2.70;95282.00;;;;5050446;28;20989;-84
2023/01/19 06:39:31;;;;;;;1.27;1.13;;;1.60;99.90;2.70;95286.00;;;;5043586;28;20467;-84
2023/01/19 06:42:20;;;;;;;0.90;0.90;;;1.80;99.90;2.70;95285.00;;;;5043438;28;20444;-84
2023/01/19 06:45:10;;;;;;;1.03;1.03;;;1.50;99.90;2.70;95295.00;;;;5052358;28;20452;-85
2023/01/19 06:47:59;;;;;;;1.13;1.03;;;1.50;99.90;2.30;95295.00;;;;5050358;28;20993;-84
2023/01/19 06:50:49;;;;;;;1.20;1.20;;;1.40;99.90;2.60;95304.00;;;;5050603;28;20431;-84
2023/01/19 06:53:38;;;;;;;3.77;1.43;;;1.60;99.90;2.70;95311.00;;;;5048370;28;20451;-84
2023/01/19 06:56:28;;;;;;;1.00;1.00;;;1.40;99.90;2.50;95295.00;;;;5045183;28;20452;-84
2023/01/19 06:59:16;;;;;;;1.53;1.00;;;1.40;99.90;2.70;95310.00;;;;5049368;28;20575;-84
2023/01/19 07:02:05;;;;;;;2.67;1.10;;;1.40;99.90;2.60;95304.00;;;;5051442;28;20550;-84
2023/01/19 07:04:54;;;;;;;1.27;1.17;;;1.40;99.90;2.60;95310.00;;;;5049863;28;20765;-84
2023/01/19 07:07:44;;;;;;;1.17;1.07;;;1.40;99.90;2.60;95308.00;;;;5049052;28;21297;-83
2023/01/19 07:10:32;;;;;;;1.77;1.10;;;1.50;99.90;2.80;95320.00;;;;5051082;28;20869;-85
2023/01/19 07:13:23;;;;;;;1.17;1.07;;;1.60;99.90;2.70;95313.00;;;;5046879;28;20478;-85
2023/01/19 07:16:13;;;;;;;1.30;1.20;;;1.50;99.90;3.10;95315.00;;;;5046897;28;20427;-84
2023/01/19 07:19:01;;;;;;;2.13;1.33;;;1.70;99.90;3.50;95310.00;;;;5047102;28;21007;-85
2023/01/19 07:21:50;;;;;;;0.90;0.90;;;1.70;99.90;3.10;95307.00;;;;5049282;28;20189;-85
2023/01/19 07:24:39;;;;;;;4.13;2.60;;;1.80;99.90;3.30;95318.00;;;;5047854;28;20454;-85
2023/01/19 07:27:28;;;;;;;1.37;1.27;;;1.80;99.90;3.20;95316.00;;;;5049904;28;20420;-85
2023/01/19 07:30:18;;;;;;;4.03;1.60;;;2.70;99.90;3.50;95314.00;;;;5053720;28;20219;-85
2023/01/19 07:33:07;;;;;;;1.50;1.20;;;2.00;99.90;3.50;95331.00;;;;5049400;28;20236;-85
2023/01/19 07:35:56;;;;;;;3.30;1.40;;;3.00;99.90;3.60;95333.00;;;;5044028;28;20434;-86
2023/01/19 07:38:44;;;;;;;1.00;0.90;;;2.10;99.90;3.50;95347.00;;;;5048826;28;20221;-86
2023/01/19 07:41:33;;;;;;;1.47;1.37;;;2.20;99.90;3.80;95360.00;;;;5044372;28;20707;-86
2023/01/19 07:44:22;;;;;;;1.10;1.00;;;3.60;99.90;3.70;95363.00;;;;5046849;28;21201;-86
2023/01/19 07:47:12;;;;;;;1.40;1.30;;;2.30;99.90;3.80;95370.00;;;;5047179;28;20287;-85
2023/01/19 07:50:01;;;;;;;1.60;1.03;;;2.40;99.90;3.90;95375.00;;;;5050056;28;20204;-85
2023/01/19 07:52:52;;;;;;;1.37;1.27;;;2.50;99.90;3.90;95401.00;;;;5049872;28;20707;-86
2023/01/19 07:55:40;;;;;;;4.40;1.13;;;2.40;99.90;3.90;95394.00;;;;5050011;28;20431;-85
2023/01/19 07:58:29;;;;;;;1.70;1.43;;;3.40;99.90;3.80;95394.00;;;;5048732;28;20582;-86
2023/01/19 08:01:18;;;;;;;2.03;0.87;;;3.70;99.90;3.90;95398.00;;;;5047201;28;20443;-85
2023/01/19 08:04:09;;;;;;;1.80;1.63;;;2.60;99.90;3.80;95414.00;;;;5044395;28;20224;-85
2023/01/19 08:06:58;;;;;;;4.30;1.47;;;2.50;99.90;3.60;95406.00;;;;5045394;28;20212;-84
2023/01/19 08:09:46;;;;;;;1.07;1.00;;;2.50;99.90;3.50;95397.00;;;;5042521;28;20213;-85
2023/01/19 08:12:35;;;;;;;0.70;0.70;;;2.50;99.90;3.60;95401.00;;;;5042210;28;20223;-84
2023/01/19 08:15:25;;;;;;;1.43;1.13;;;2.40;99.90;3.60;95399.00;;;;5047114;28;20212;-85
2023/01/19 08:18:14;;;;;;;1.97;1.40;;;3.00;99.90;3.50;95400.00;;;;5047379;28;20193;-84
2023/01/19 08:21:05;;;;;;;2.73;1.07;;;2.30;99.90;3.60;95409.00;;;;5047498;28;20628;-85
2023/01/19 08:23:54;;;;;;;1.70;1.27;;;2.30;99.90;3.50;95407.00;;;;5044134;28;20221;-84
2023/01/19 08:26:42;;;;;;;1.37;1.27;;;2.30;99.90;3.50;95410.00;;;;5050221;28;20201;-85
2023/01/19 08:29:32;;;;;;;1.33;0.90;;;2.20;99.90;3.50;95403.00;;;;5045712;28;20197;-85
2023/01/19 08:32:21;;;;;;;1.23;1.17;;;2.30;99.90;3.30;95404.00;;;;5045886;28;20266;-85
2023/01/19 08:35:10;;;;;;;1.50;1.20;;;2.40;99.90;3.60;95404.00;;;;5046822;28;20509;-85
2023/01/19 08:38:01;;;;;;;0.93;0.93;;;2.30;99.90;3.60;95407.00;;;;5048446;28;20205;-85
2023/01/19 08:40:49;;;;;;;1.00;1.00;;;2.30;99.90;3.70;95418.00;;;;5049945;28;20221;-85
2023/01/19 08:43:38;;;;;;;3.17;1.80;;;3.20;99.90;3.80;95421.00;;;;5040857;28;20222;-85
2023/01/19 08:46:27;;;;;;;1.63;1.30;;;2.40;99.90;3.60;95421.00;;;;5046502;28;20213;-84
2023/01/19 08:49:16;;;;;;;2.20;1.83;;;2.30;99.90;3.80;95423.00;;;;5044735;28;20211;-84
2023/01/19 08:52:05;;;;;;;7.87;4.37;;;2.40;99.90;3.70;95417.00;;;;5038719;28;20503;-85
2023/01/19 08:54:55;;;;;;;4.87;2.73;;;2.40;99.90;4.00;95421.00;;;;5045784;28;20668;-85
2023/01/19 08:57:44;;;;;;;2.13;1.93;;;2.50;99.90;4.00;95425.00;;;;5047135;28;20452;-84
2023/01/19 09:00:34;;;;;;;2.93;1.17;;;2.50;99.90;4.10;95428.00;;;;5049409;28;20239;-85
2023/01/19 09:03:22;;;;;;;1.97;1.67;;;2.60;99.90;4.20;95435.00;;;;5047921;28;20655;-85
2023/01/19 09:06:15;;;;;;;3.13;1.73;;;2.60;99.90;4.20;95439.00;;;;5051671;28;20201;-85
2023/01/19 09:09:04;;;;;;;2.77;2.50;;;2.70;99.90;4.30;95436.00;;;;5038738;28;20192;-85
2023/01/19 09:11:55;;;;;;;5.50;4.20;;;2.80;99.90;4.30;95439.00;;;;5049690;28;20196;-85
2023/01/19 09:14:44;;;;;;;0.93;0.90;;;2.90;99.90;4.10;95435.00;;;;5053045;28;20197;-85
2023/01/19 09:17:33;;;;;;;2.43;2.20;;;2.80;99.90;4.50;95444.00;;;;5043229;28;20205;-84
2023/01/19 09:20:22;;;;;;;3.10;2.90;;;2.80;99.90;4.70;95442.00;;;;5048295;28;20264;-85
2023/01/19 09:23:12;;;;;;;1.43;1.33;;;3.00;99.90;4.80;95441.00;;;;5041711;28;20224;-85
2023/01/19 09:26:03;;;;;;;1.20;1.10;;;3.20;99.90;4.80;95439.00;;;;5046337;28;20189;-84
2023/01/19 09:28:54;;;;;;;0.97;0.83;;;3.20;99.90;4.80;95449.00;;;;5047590;28;20205;-85
2023/01/19 09:31:44;;;;;;;3.50;3.20;;;3.70;99.90;5.00;95445.00;;;;5044512;28;20212;-84
2023/01/19 09:34:33;;;;;;;3.60;2.33;;;3.40;99.90;4.70;95460.00;;;;5048866;28;20204;-85
2023/01/19 09:37:22;;;;;;;1.13;1.10;;;3.40;99.90;5.00;95464.00;;;;5050947;28;20219;-85
2023/01/19 09:40:13;;;;;;;0.93;0.87;;;3.50;99.90;4.60;95464.00;;;;5036785;28;20228;-85
2023/01/19 09:43:13;;;;;;;0.80;0.80;;;3.40;99.90;4.90;95460.00;;;;5044970;28;20220;-85
2023/01/19 09:46:11;;;;;;;0.97;0.97;;;3.50;99.90;5.00;95458.00;;;;5045378;28;20219;-85
2023/01/19 09:49:05;;;;;;;2.63;0.93;;;3.50;99.90;5.20;95470.00;;;;5041872;28;20778;-85
2023/01/19 09:51:54;;;;;;;1.20;1.10;;;3.60;99.90;5.00;95461.00;;;;5045618;28;20207;-85
2023/01/19 09:54:51;;;;;;;0.80;0.80;;;4.00;99.90;4.80;95464.00;;;;5050130;28;20216;-85
2023/01/19 09:57:40;;;;;;;3.00;1.00;;;3.60;99.90;4.80;95479.00;;;;5046510;28;20221;-85
2023/01/19 10:00:31;;;;;;;0.93;0.87;;;3.60;99.90;4.80;95473.00;;;;5053180;28;20224;-85
2023/01/19 10:03:22;;;;;;;0.80;0.80;;;3.60;99.90;4.70;95474.00;;;;5051018;28;20228;-85
2023/01/19 10:06:14;;;;;;;2.00;1.17;;;3.60;99.90;4.90;95479.00;;;;5050809;28;20238;-85
2023/01/19 10:09:13;;;;;;;2.00;1.80;;;3.90;99.90;5.00;95475.00;;;;5046173;28;20200;-85
2023/01/19 10:12:11;;;;;;;1.20;1.10;;;3.60;99.90;5.10;95479.00;;;;5047646;28;20216;-85
2023/01/19 10:15:06;;;;;;;1.73;1.57;;;3.60;99.90;5.10;95483.00;;;;5048334;28;20203;-85
2023/01/19 10:18:13;;;;;;;0.80;0.80;;;3.60;99.90;5.00;95475.00;;;;5052633;28;20188;-86
2023/01/19 10:21:11;;;;;;;1.63;1.03;;;3.70;99.90;4.90;95487.00;;;;5044729;28;20263;-85
2023/01/19 10:24:06;;;;;;;1.33;1.23;;;3.70;99.90;5.00;95484.00;;;;5046052;28;20585;-85
2023/01/19 10:26:56;;;;;;;1.17;1.13;;;3.60;99.90;5.10;95496.00;;;;5050000;28;20197;-85
2023/01/19 10:29:46;;;;;;;1.33;1.23;;;4.30;99.90;4.80;95501.00;;;;5046740;28;20197;-84
2023/01/19 10:32:36;;;;;;;1.43;1.30;;;3.60;99.90;4.80;95499.00;;;;5051134;28;20240;-85
2023/01/19 10:35:25;;;;;;;5.43;3.60;;;4.00;99.90;4.70;95506.00;;;;5049262;28;20204;-85
2023/01/19 10:38:20;;;;;;;4.57;2.20;;;3.50;99.90;4.70;95491.00;;;;5051524;28;20208;-85
2023/01/19 10:41:21;;;;;;;1.00;0.97;;;3.50;99.90;4.60;95492.00;;;;5055587;28;20224;-84
2023/01/19 10:44:10;;;;;;;0.93;0.93;;;3.20;99.90;4.60;95494.00;;;;5056859;28;20220;-84
2023/01/19 10:47:00;;;;;;;0.83;0.83;;;3.40;99.90;4.90;95496.00;;;;5052514;28;20204;-84
2023/01/19 10:49:50;;;;;;;1.10;1.00;;;3.40;99.90;4.70;95503.00;;;;5052480;28;20667;-85
2023/01/19 10:52:43;;;;;;;1.47;1.00;;;3.90;99.90;4.70;95505.00;;;;5047053;28;20228;-84
2023/01/19 10:55:40;;;;;;;0.57;0.57;;;3.40;99.90;4.40;95501.00;;;;5057161;28;20208;-84
2023/01/19 10:58:31;;;;;;;1.33;1.07;;;3.30;99.90;4.60;95499.00;;;;5049725;28;20216;-84
2023/01/19 11:01:23;;;;;;;1.20;0.90;;;3.30;99.90;4.70;95505.00;;;;5046780;28;20231;-84
2023/01/19 11:04:25;;;;;;;0.80;0.80;;;3.40;99.90;4.30;95502.00;;;;5050275;28;20262;-84
2023/01/19 11:07:19;;;;;;;3.67;0.90;;;3.30;99.90;4.40;95509.00;;;;5049869;28;20207;-85
2023/01/19 11:10:23;;;;;;;5.90;1.40;;;3.80;99.90;4.50;95512.00;;;;5041787;28;20208;-85
2023/01/19 11:13:14;;;;;;;1.73;1.00;;;3.20;99.90;4.50;95512.00;;;;5051146;28;20223;-85
2023/01/19 11:16:15;;;;;;;1.37;0.97;;;3.20;99.90;4.40;95508.00;;;;5046507;28;20786;-85
2023/01/19 11:19:04;;;;;;;1.87;0.77;;;3.30;99.90;4.40;95510.00;;;;5045172;28;20567;-84
2023/01/19 11:22:08;;;;;;;5.37;1.20;;;3.20;99.90;4.50;95516.00;;;;5051909;28;20265;-84
2023/01/19 11:25:02;;;;;;;0.80;0.80;;;3.20;99.90;4.40;95512.00;;;;5053318;28;20211;-84
2023/01/19 11:27:52;;;;;;;1.27;0.93;;;5.00;99.90;4.40;95521.00;;;;5051206;28;20699;-84
2023/01/19 11:30:56;;;;;;;1.27;0.93;;;3.10;99.90;4.60;95520.00;;;;5052078;28;20205;-85
2023/01/19 11:33:51;;;;;;;1.37;1.13;;;3.20;99.90;4.40;95520.00;;;;5047903;28;20220;-84
2023/01/19 11:36:40;;;;;;;1.00;1.00;;;3.20;99.90;4.50;95526.00;;;;5041797;28;20201;-84
2023/01/19 11:39:31;;;;;;;1.30;0.90;;;3.20;99.90;4.50;95526.00;;;;5052283;28;20274;-84
2023/01/19 11:42:21;;;;;;;1.27;1.10;;;3.20;99.90;4.30;95532.00;;;;5051791;28;20252;-83
2023/01/19 11:45:15;;;;;;;0.90;0.90;;;3.20;99.90;4.10;95529.00;;;;5050698;28;20188;-86
2023/01/19 11:48:07;;;;;;;0.77;0.77;;;3.10;99.90;4.30;95543.00;;;;5037169;28;20514;-86
2023/01/19 11:51:00;;;;;;;2.73;1.20;;;3.30;99.90;4.40;95536.00;;;;5044899;28;20198;-86
2023/01/19 11:53:53;;;;;;;0.80;0.80;;;3.10;99.90;4.30;95540.00;;;;5049735;28;20220;-85
2023/01/19 11:56:42;;;;;;;5.37;1.20;;;3.00;99.90;4.50;95541.00;;;;5048959;28;20193;-85
2023/01/19 11:59:31;;;;;;;5.53;3.50;;;3.10;99.90;4.50;95537.00;;;;5048810;28;20196;-85
2023/01/19 12:02:28;;;;;;;2.30;0.93;;;3.10;99.90;4.20;95557.00;;;;5050125;28;20275;-86
2023/01/19 12:05:21;;;;;;;2.37;1.20;;;4.50;99.90;4.40;95551.00;;;;5047366;28;20663;-85
2023/01/19 12:08:18;;;;;;;0.83;0.83;;;3.10;99.90;4.10;95545.00;;;;5055010;28;20574;-86
2023/01/19 12:11:11;;;;;;;1.43;0.63;;;3.20;99.90;4.10;95549.00;;;;5049752;28;20368;-85
2023/01/19 12:14:01;;;;;;;1.27;1.00;;;3.10;99.90;4.50;95552.00;;;;5044368;28;20243;-85
2023/01/19 12:16:53;;;;;;;1.27;0.70;;;3.10;99.90;4.60;95552.00;;;;5046247;28;20672;-84
2023/01/19 12:19:55;;;;;;;0.90;0.90;;;3.20;99.90;4.60;95558.00;;;;5049966;28;20199;-85
2023/01/19 12:22:55;;;;;;;1.17;1.00;;;3.20;99.90;4.40;95568.00;;;;5045696;28;20262;-85
2023/01/19 12:26:06;;;;;;;0.80;0.80;;;3.20;99.90;4.60;95569.00;;;;5048686;28;20205;-84
2023/01/19 12:28:59;;;;;;;0.70;0.70;;;3.20;99.90;3.60;95565.00;;;;5043651;28;20488;-85
2023/01/19 12:32:18;;;;;;;0.70;0.70;;;3.10;99.90;3.90;95573.00;;;;5046419;28;20197;-84
2023/01/19 12:35:57;;;;;;;1.53;1.13;;;3.00;99.90;4.10;95574.00;;;;5045943;28;20307;-84
2023/01/19 12:38:53;;;;;;;1.10;1.00;;;3.00;99.90;4.40;95588.00;;;;5047508;28;20204;-84
2023/01/19 12:41:44;;;;;;;0.73;0.73;;;3.00;99.90;4.10;95572.00;;;;5053252;28;20221;-84
2023/01/19 12:44:34;;;;;;;1.53;1.03;;;3.00;99.90;4.50;95578.00;;;;5051090;28;20207;-84
2023/01/19 12:47:23;;;;;;;4.10;2.50;;;3.10;99.90;4.60;95580.00;;;;5050310;28;20212;-84
2023/01/19 12:50:18;;;;;;;7.30;4.57;;;3.10;99.90;4.60;95583.00;;;;5048946;28;20200;-84
2023/01/19 12:53:19;;;;;;;15.07;7.10;;;3.10;99.90;4.60;95591.00;;;;5049776;28;20259;-85
2023/01/19 12:56:09;;;;;;;10.67;4.23;;;3.20;99.90;4.70;95581.00;;;;5047052;28;20215;-84
2023/01/19 12:58:59;;;;;;;3.90;2.03;;;3.20;99.90;4.80;95571.00;;;;5043007;28;20203;-84
2023/01/19 13:02:50;;;;;;;8.13;3.00;;;3.30;99.90;4.70;95577.00;;;;5046591;28;20702;-84
2023/01/19 13:05:57;;;;;;;5.00;3.87;;;3.30;99.90;4.80;95573.00;;;;5048864;28;20681;-83
2023/01/19 13:09:00;;;;;;;10.83;5.87;;;3.40;99.90;4.70;95563.00;;;;5052483;28;20707;-83